< < Back
Terminal Aerodrome Forecast


Current Version              Previous Versions:   1  2  3  4  5  6  7  8  9  

Terminal Aerodrome Forecast

796
FTUS44 KBMX 020500
TAFANB
TAF
KANB 020536Z 0206/0306 05004KT 5SM BR VCSH OVC006
     FM020900 VRB03KT 3SM -RA BR OVC004
     FM021600 03005KT 4SM -RA BR OVC007=



Latest METAR

556
SAUS70 KWBC 021500 RRC
MTRANB
METAR KANB 021453Z AUTO 25003KT 6SM BR FEW004 OVC009 11/10 A3037 RMK AO2
RAE53 CIG 007V012 SLP286 P0005 60006 T01110100 53015


USA.gov is the U.S. government's official web portal to all federal, state and local government web resources and services.